sensor_id;sensor_type;location;lat;lon;timestamp;temperature;humidity
22781;DHT22;11557;50.884;4.322;2022-07-19T00:02:02;25.30;99.90
22781;DHT22;11557;50.884;4.322;2022-07-19T00:04:28;25.30;99.90
22781;DHT22;11557;50.884;4.322;2022-07-19T00:06:53;25.20;99.90
22781;DHT22;11557;50.884;4.322;2022-07-19T00:09:21;25.30;99.90
22781;DHT22;11557;50.884;4.322;2022-07-19T00:11:47;25.30;99.90
22781;DHT22;11557;50.884;4.322;2022-07-19T00:14:13;25.10;99.90
22781;DHT22;11557;50.884;4.322;2022-07-19T00:16:38;25.20;99.90
22781;DHT22;11557;50.884;4.322;2022-07-19T00:19:04;25.20;99.90
22781;DHT22;11557;50.884;4.322;2022-07-19T00:21:30;25.10;99.90
22781;DHT22;11557;50.884;4.322;2022-07-19T00:23:55;25.20;99.90
22781;DHT22;11557;50.884;4.322;2022-07-19T00:26:21;25.10;99.90
22781;DHT22;11557;50.884;4.322;2022-07-19T00:28:46;25.10;99.90
22781;DHT22;11557;50.884;4.322;2022-07-19T00:31:12;25.00;99.90
22781;DHT22;11557;50.884;4.322;2022-07-19T00:33:38;25.00;99.90
22781;DHT22;11557;50.884;4.322;2022-07-19T00:36:04;25.00;99.90
22781;DHT22;11557;50.884;4.322;2022-07-19T00:38:30;24.90;99.90
22781;DHT22;11557;50.884;4.322;2022-07-19T00:40:55;24.90;99.90
22781;DHT22;11557;50.884;4.322;2022-07-19T00:43:21;24.90;99.90
22781;DHT22;11557;50.884;4.322;2022-07-19T00:45:46;24.90;99.90
22781;DHT22;11557;50.884;4.322;2022-07-19T00:48:12;24.80;99.90
22781;DHT22;11557;50.884;4.322;2022-07-19T00:50:38;24.80;99.90
22781;DHT22;11557;50.884;4.322;2022-07-19T00:53:04;24.80;99.90
22781;DHT22;11557;50.884;4.322;2022-07-19T00:55:33;24.70;99.90
22781;DHT22;11557;50.884;4.322;2022-07-19T00:57:59;24.70;99.90
22781;DHT22;11557;50.884;4.322;2022-07-19T01:00:27;24.70;99.90
22781;DHT22;11557;50.884;4.322;2022-07-19T01:02:54;24.60;99.90
22781;DHT22;11557;50.884;4.322;2022-07-19T01:05:19;24.60;99.90
22781;DHT22;11557;50.884;4.322;2022-07-19T01:07:46;24.60;99.90
22781;DHT22;11557;50.884;4.322;2022-07-19T01:10:14;24.50;99.90
22781;DHT22;11557;50.884;4.322;2022-07-19T01:12:40;24.50;99.90
22781;DHT22;11557;50.884;4.322;2022-07-19T01:15:18;24.50;99.90
22781;DHT22;11557;50.884;4.322;2022-07-19T01:17:44;24.50;99.90
22781;DHT22;11557;50.884;4.322;2022-07-19T01:20:11;24.50;99.90
22781;DHT22;11557;50.884;4.322;2022-07-19T01:22:37;24.50;99.90
22781;DHT22;11557;50.884;4.322;2022-07-19T01:25:04;24.50;99.90
22781;DHT22;11557;50.884;4.322;2022-07-19T01:27:30;24.50;99.90
22781;DHT22;11557;50.884;4.322;2022-07-19T01:29:55;24.50;99.90
22781;DHT22;11557;50.884;4.322;2022-07-19T01:32:21;24.40;99.90
22781;DHT22;11557;50.884;4.322;2022-07-19T01:34:47;24.40;99.90
22781;DHT22;11557;50.884;4.322;2022-07-19T01:37:13;24.30;99.90
22781;DHT22;11557;50.884;4.322;2022-07-19T01:39:38;24.30;99.90
22781;DHT22;11557;50.884;4.322;2022-07-19T01:42:04;24.30;99.90
22781;DHT22;11557;50.884;4.322;2022-07-19T01:44:30;24.20;99.90
22781;DHT22;11557;50.884;4.322;2022-07-19T01:46:55;24.20;99.90
22781;DHT22;11557;50.884;4.322;2022-07-19T01:49:21;24.20;99.90
22781;DHT22;11557;50.884;4.322;2022-07-19T01:51:46;24.30;99.90
22781;DHT22;11557;50.884;4.322;2022-07-19T01:54:12;24.30;99.90
22781;DHT22;11557;50.884;4.322;2022-07-19T01:56:42;24.30;99.90
22781;DHT22;11557;50.884;4.322;2022-07-19T01:59:08;24.20;99.90
22781;DHT22;11557;50.884;4.322;2022-07-19T02:01:33;24.20;99.90
22781;DHT22;11557;50.884;4.322;2022-07-19T02:03:59;24.10;99.90
22781;DHT22;11557;50.884;4.322;2022-07-19T02:06:24;24.10;99.90
22781;DHT22;11557;50.884;4.322;2022-07-19T02:08:50;24.10;99.90
22781;DHT22;11557;50.884;4.322;2022-07-19T02:11:16;24.10;99.90
22781;DHT22;11557;50.884;4.322;2022-07-19T02:14:00;24.10;99.90
22781;DHT22;11557;50.884;4.322;2022-07-19T02:16:26;24.20;99.90
22781;DHT22;11557;50.884;4.322;2022-07-19T02:18:51;24.00;99.90
22781;DHT22;11557;50.884;4.322;2022-07-19T02:21:17;24.00;99.90
22781;DHT22;11557;50.884;4.322;2022-07-19T02:23:43;24.00;99.90
22781;DHT22;11557;50.884;4.322;2022-07-19T02:26:08;24.00;99.90
22781;DHT22;11557;50.884;4.322;2022-07-19T02:28:34;23.90;99.90
22781;DHT22;11557;50.884;4.322;2022-07-19T02:31:00;23.90;99.90
22781;DHT22;11557;50.884;4.322;2022-07-19T02:33:25;23.90;99.90
22781;DHT22;11557;50.884;4.322;2022-07-19T02:35:51;23.80;99.90
22781;DHT22;11557;50.884;4.322;2022-07-19T02:38:16;23.80;99.90
22781;DHT22;11557;50.884;4.322;2022-07-19T02:40:43;23.90;99.90
22781;DHT22;11557;50.884;4.322;2022-07-19T02:43:09;23.80;99.90
22781;DHT22;11557;50.884;4.322;2022-07-19T02:45:34;23.80;99.90
22781;DHT22;11557;50.884;4.322;2022-07-19T02:48:00;23.70;99.90
22781;DHT22;11557;50.884;4.322;2022-07-19T02:50:28;23.70;99.90
22781;DHT22;11557;50.884;4.322;2022-07-19T02:52:53;23.60;99.90
22781;DHT22;11557;50.884;4.322;2022-07-19T02:55:19;23.70;99.90
22781;DHT22;11557;50.884;4.322;2022-07-19T02:57:45;23.60;99.90
22781;DHT22;11557;50.884;4.322;2022-07-19T03:00:11;23.60;99.90
22781;DHT22;11557;50.884;4.322;2022-07-19T03:02:38;23.60;99.90
22781;DHT22;11557;50.884;4.322;2022-07-19T03:05:05;23.60;99.90
22781;DHT22;11557;50.884;4.322;2022-07-19T03:07:30;23.70;99.90
22781;DHT22;11557;50.884;4.322;2022-07-19T03:09:59;23.70;99.90
22781;DHT22;11557;50.884;4.322;2022-07-19T03:12:25;23.50;99.90
22781;DHT22;11557;50.884;4.322;2022-07-19T03:14:51;23.60;99.90
22781;DHT22;11557;50.884;4.322;2022-07-19T03:17:16;23.60;99.90
22781;DHT22;11557;50.884;4.322;2022-07-19T03:19:42;23.50;99.90
22781;DHT22;11557;50.884;4.322;2022-07-19T03:22:07;23.40;99.90
22781;DHT22;11557;50.884;4.322;2022-07-19T03:24:33;23.40;99.90
22781;DHT22;11557;50.884;4.322;2022-07-19T03:26:59;23.40;99.90
22781;DHT22;11557;50.884;4.322;2022-07-19T03:29:24;23.40;99.90
22781;DHT22;11557;50.884;4.322;2022-07-19T03:31:50;23.30;99.90
22781;DHT22;11557;50.884;4.322;2022-07-19T03:34:16;23.30;99.90
22781;DHT22;11557;50.884;4.322;2022-07-19T03:36:42;23.30;99.90
22781;DHT22;11557;50.884;4.322;2022-07-19T03:39:08;23.30;99.90
22781;DHT22;11557;50.884;4.322;2022-07-19T03:41:33;23.40;99.90
22781;DHT22;11557;50.884;4.322;2022-07-19T03:43:59;23.20;99.90
22781;DHT22;11557;50.884;4.322;2022-07-19T03:46:25;23.10;99.90
22781;DHT22;11557;50.884;4.322;2022-07-19T03:48:51;23.10;99.90
22781;DHT22;11557;50.884;4.322;2022-07-19T03:51:17;23.20;99.90
22781;DHT22;11557;50.884;4.322;2022-07-19T03:53:43;23.10;99.90
22781;DHT22;11557;50.884;4.322;2022-07-19T03:56:09;23.10;99.90
22781;DHT22;11557;50.884;4.322;2022-07-19T03:58:34;23.10;99.90
22781;DHT22;11557;50.884;4.322;2022-07-19T04:01:00;23.10;99.90
22781;DHT22;11557;50.884;4.322;2022-07-19T04:03:25;23.10;99.90
22781;DHT22;11557;50.884;4.322;2022-07-19T04:05:51;23.10;99.90
22781;DHT22;11557;50.884;4.322;2022-07-19T04:08:17;23.00;99.90
22781;DHT22;11557;50.884;4.322;2022-07-19T04:10:42;23.10;99.90
22781;DHT22;11557;50.884;4.322;2022-07-19T04:13:08;23.10;99.90
22781;DHT22;11557;50.884;4.322;2022-07-19T04:15:34;23.00;99.90
22781;DHT22;11557;50.884;4.322;2022-07-19T04:17:59;23.10;99.90
22781;DHT22;11557;50.884;4.322;2022-07-19T04:20:25;23.10;99.90
22781;DHT22;11557;50.884;4.322;2022-07-19T04:22:50;23.20;99.90
22781;DHT22;11557;50.884;4.322;2022-07-19T04:25:16;23.10;99.90
22781;DHT22;11557;50.884;4.322;2022-07-19T04:27:42;23.10;99.90
22781;DHT22;11557;50.884;4.322;2022-07-19T04:30:09;23.10;99.90
22781;DHT22;11557;50.884;4.322;2022-07-19T04:32:34;23.20;99.90
22781;DHT22;11557;50.884;4.322;2022-07-19T04:35:01;23.20;99.90
22781;DHT22;11557;50.884;4.322;2022-07-19T04:37:26;23.20;99.90
22781;DHT22;11557;50.884;4.322;2022-07-19T04:39:52;23.20;99.90
22781;DHT22;11557;50.884;4.322;2022-07-19T04:42:18;23.10;99.90
22781;DHT22;11557;50.884;4.322;2022-07-19T04:44:43;23.00;99.90
22781;DHT22;11557;50.884;4.322;2022-07-19T04:47:09;23.10;99.90
22781;DHT22;11557;50.884;4.322;2022-07-19T04:49:35;23.30;99.90
22781;DHT22;11557;50.884;4.322;2022-07-19T04:52:00;23.30;99.90
22781;DHT22;11557;50.884;4.322;2022-07-19T04:54:26;23.30;99.90
22781;DHT22;11557;50.884;4.322;2022-07-19T04:56:52;23.20;99.90
22781;DHT22;11557;50.884;4.322;2022-07-19T04:59:17;23.30;99.90
22781;DHT22;11557;50.884;4.322;2022-07-19T05:01:43;23.30;99.90
22781;DHT22;11557;50.884;4.322;2022-07-19T05:04:09;23.20;99.90
22781;DHT22;11557;50.884;4.322;2022-07-19T05:06:34;23.30;99.90
22781;DHT22;11557;50.884;4.322;2022-07-19T05:09:00;23.30;99.90
22781;DHT22;11557;50.884;4.322;2022-07-19T05:11:26;23.40;99.90
22781;DHT22;11557;50.884;4.322;2022-07-19T05:13:52;23.40;99.90
22781;DHT22;11557;50.884;4.322;2022-07-19T05:16:17;23.40;99.90
22781;DHT22;11557;50.884;4.322;2022-07-19T05:18:43;23.50;99.90
22781;DHT22;11557;50.884;4.322;2022-07-19T05:21:09;23.60;99.90
22781;DHT22;11557;50.884;4.322;2022-07-19T05:23:34;23.60;99.90
22781;DHT22;11557;50.884;4.322;2022-07-19T05:26:00;23.70;99.90
22781;DHT22;11557;50.884;4.322;2022-07-19T05:28:26;23.70;99.90
22781;DHT22;11557;50.884;4.322;2022-07-19T05:30:51;23.70;99.90
22781;DHT22;11557;50.884;4.322;2022-07-19T05:33:17;23.80;99.90
22781;DHT22;11557;50.884;4.322;2022-07-19T05:35:43;23.80;99.90
22781;DHT22;11557;50.884;4.322;2022-07-19T05:38:08;23.80;99.90
22781;DHT22;11557;50.884;4.322;2022-07-19T05:40:34;23.90;99.90
22781;DHT22;11557;50.884;4.322;2022-07-19T05:43:00;23.90;99.90
22781;DHT22;11557;50.884;4.322;2022-07-19T05:45:26;24.00;99.90
22781;DHT22;11557;50.884;4.322;2022-07-19T05:47:52;24.00;99.90
22781;DHT22;11557;50.884;4.322;2022-07-19T05:50:19;24.00;99.90
22781;DHT22;11557;50.884;4.322;2022-07-19T05:52:45;24.10;99.90
22781;DHT22;11557;50.884;4.322;2022-07-19T05:55:11;24.10;99.90
22781;DHT22;11557;50.884;4.322;2022-07-19T05:57:36;24.20;99.90
22781;DHT22;11557;50.884;4.322;2022-07-19T06:00:03;24.30;99.90
22781;DHT22;11557;50.884;4.322;2022-07-19T06:02:29;24.40;99.90
22781;DHT22;11557;50.884;4.322;2022-07-19T06:04:55;24.40;99.90
22781;DHT22;11557;50.884;4.322;2022-07-19T06:07:20;24.50;99.90
22781;DHT22;11557;50.884;4.322;2022-07-19T06:09:46;24.50;99.90
22781;DHT22;11557;50.884;4.322;2022-07-19T06:12:12;24.60;99.90
22781;DHT22;11557;50.884;4.322;2022-07-19T06:14:37;24.60;99.90
22781;DHT22;11557;50.884;4.322;2022-07-19T06:17:03;24.70;99.90
22781;DHT22;11557;50.884;4.322;2022-07-19T06:19:28;24.70;99.90
22781;DHT22;11557;50.884;4.322;2022-07-19T06:21:54;24.80;99.90
22781;DHT22;11557;50.884;4.322;2022-07-19T06:24:20;24.90;99.90
22781;DHT22;11557;50.884;4.322;2022-07-19T06:26:45;25.00;99.90
22781;DHT22;11557;50.884;4.322;2022-07-19T06:29:11;25.00;99.90
22781;DHT22;11557;50.884;4.322;2022-07-19T06:31:36;25.10;99.90
22781;DHT22;11557;50.884;4.322;2022-07-19T06:34:02;25.20;99.90
22781;DHT22;11557;50.884;4.322;2022-07-19T06:36:27;25.30;99.90
22781;DHT22;11557;50.884;4.322;2022-07-19T06:38:53;25.30;99.90
22781;DHT22;11557;50.884;4.322;2022-07-19T06:41:19;25.40;99.90
22781;DHT22;11557;50.884;4.322;2022-07-19T06:43:45;25.60;99.90
22781;DHT22;11557;50.884;4.322;2022-07-19T06:46:11;25.60;99.90
22781;DHT22;11557;50.884;4.322;2022-07-19T06:48:37;25.70;99.90
22781;DHT22;11557;50.884;4.322;2022-07-19T06:51:05;25.80;99.90
22781;DHT22;11557;50.884;4.322;2022-07-19T06:53:31;25.90;99.90
22781;DHT22;11557;50.884;4.322;2022-07-19T06:55:57;26.10;99.90
22781;DHT22;11557;50.884;4.322;2022-07-19T06:58:23;27.50;99.90
22781;DHT22;11557;50.884;4.322;2022-07-19T07:00:48;30.40;99.90
22781;DHT22;11557;50.884;4.322;2022-07-19T07:03:14;33.40;99.90
22781;DHT22;11557;50.884;4.322;2022-07-19T07:05:41;36.00;99.90
22781;DHT22;11557;50.884;4.322;2022-07-19T07:08:06;38.00;99.90
22781;DHT22;11557;50.884;4.322;2022-07-19T07:10:32;39.80;96.80
22781;DHT22;11557;50.884;4.322;2022-07-19T07:12:58;41.20;95.00
22781;DHT22;11557;50.884;4.322;2022-07-19T07:15:23;42.30;93.40
22781;DHT22;11557;50.884;4.322;2022-07-19T07:17:49;43.10;91.70
22781;DHT22;11557;50.884;4.322;2022-07-19T07:20:15;44.20;90.20
22781;DHT22;11557;50.884;4.322;2022-07-19T07:22:42;44.80;86.60
22781;DHT22;11557;50.884;4.322;2022-07-19T07:25:09;45.20;80.60
22781;DHT22;11557;50.884;4.322;2022-07-19T07:27:36;45.80;83.60
22781;DHT22;11557;50.884;4.322;2022-07-19T07:30:03;46.00;76.30
22781;DHT22;11557;50.884;4.322;2022-07-19T07:32:29;46.00;72.50
22781;DHT22;11557;50.884;4.322;2022-07-19T07:34:55;46.00;71.80
22781;DHT22;11557;50.884;4.322;2022-07-19T07:37:20;46.10;66.10
22781;DHT22;11557;50.884;4.322;2022-07-19T07:39:46;45.90;65.70
22781;DHT22;11557;50.884;4.322;2022-07-19T07:42:12;46.10;67.00
22781;DHT22;11557;50.884;4.322;2022-07-19T07:44:46;46.70;69.20
22781;DHT22;11557;50.884;4.322;2022-07-19T07:47:12;47.40;65.20
22781;DHT22;11557;50.884;4.322;2022-07-19T07:49:39;47.90;66.50
22781;DHT22;11557;50.884;4.322;2022-07-19T07:52:06;48.10;64.50
22781;DHT22;11557;50.884;4.322;2022-07-19T07:54:33;48.40;61.50
22781;DHT22;11557;50.884;4.322;2022-07-19T07:56:58;48.20;59.90
22781;DHT22;11557;50.884;4.322;2022-07-19T07:59:24;48.70;63.00
22781;DHT22;11557;50.884;4.322;2022-07-19T08:01:50;49.10;63.70
22781;DHT22;11557;50.884;4.322;2022-07-19T08:04:16;49.40;62.00
22781;DHT22;11557;50.884;4.322;2022-07-19T08:06:41;49.30;58.20
22781;DHT22;11557;50.884;4.322;2022-07-19T08:09:07;48.80;58.30
22781;DHT22;11557;50.884;4.322;2022-07-19T08:11:33;48.10;59.00
22781;DHT22;11557;50.884;4.322;2022-07-19T08:13:59;48.30;60.00
22781;DHT22;11557;50.884;4.322;2022-07-19T08:16:24;48.20;60.00
22781;DHT22;11557;50.884;4.322;2022-07-19T08:18:50;48.20;58.30
22781;DHT22;11557;50.884;4.322;2022-07-19T08:21:17;48.10;58.50
22781;DHT22;11557;50.884;4.322;2022-07-19T08:23:43;48.30;59.90
22781;DHT22;11557;50.884;4.322;2022-07-19T08:26:09;48.10;57.20
22781;DHT22;11557;50.884;4.322;2022-07-19T08:28:38;48.40;59.50
22781;DHT22;11557;50.884;4.322;2022-07-19T08:31:04;48.50;56.80
22781;DHT22;11557;50.884;4.322;2022-07-19T08:33:30;47.80;56.30
22781;DHT22;11557;50.884;4.322;2022-07-19T08:35:55;47.90;59.50
22781;DHT22;11557;50.884;4.322;2022-07-19T08:38:22;47.20;56.60
22781;DHT22;11557;50.884;4.322;2022-07-19T08:40:50;46.30;56.40
22781;DHT22;11557;50.884;4.322;2022-07-19T08:43:18;45.90;56.70
22781;DHT22;11557;50.884;4.322;2022-07-19T08:45:43;45.90;59.50
22781;DHT22;11557;50.884;4.322;2022-07-19T08:48:09;45.40;58.70
22781;DHT22;11557;50.884;4.322;2022-07-19T08:50:35;44.70;57.00
22781;DHT22;11557;50.884;4.322;2022-07-19T08:53:01;45.40;60.30
22781;DHT22;11557;50.884;4.322;2022-07-19T08:55:27;45.20;58.10
22781;DHT22;11557;50.884;4.322;2022-07-19T08:57:52;45.40;59.60
22781;DHT22;11557;50.884;4.322;2022-07-19T09:00:28;45.40;58.80
22781;DHT22;11557;50.884;4.322;2022-07-19T09:03:02;45.40;58.10
22781;DHT22;11557;50.884;4.322;2022-07-19T09:05:29;45.40;58.60
22781;DHT22;11557;50.884;4.322;2022-07-19T09:10:36;44.20;59.50
22781;DHT22;11557;50.884;4.322;2022-07-19T09:13:12;43.90;60.40
22781;DHT22;11557;50.884;4.322;2022-07-19T09:18:19;44.20;60.10
22781;DHT22;11557;50.884;4.322;2022-07-19T09:20:47;44.50;63.10
22781;DHT22;11557;50.884;4.322;2022-07-19T09:23:13;44.20;60.80
22781;DHT22;11557;50.884;4.322;2022-07-19T09:25:43;43.80;59.50
22781;DHT22;11557;50.884;4.322;2022-07-19T09:28:09;43.40;58.60
22781;DHT22;11557;50.884;4.322;2022-07-19T09:30:45;43.20;59.00
22781;DHT22;11557;50.884;4.322;2022-07-19T09:35:46;42.90;58.90
22781;DHT22;11557;50.884;4.322;2022-07-19T09:40:48;42.60;62.80
22781;DHT22;11557;50.884;4.322;2022-07-19T09:43:15;43.10;62.90
22781;DHT22;11557;50.884;4.322;2022-07-19T09:45:40;42.40;59.00
22781;DHT22;11557;50.884;4.322;2022-07-19T09:48:06;42.20;60.00
22781;DHT22;11557;50.884;4.322;2022-07-19T09:50:32;41.70;61.90
22781;DHT22;11557;50.884;4.322;2022-07-19T09:53:01;41.60;61.00
22781;DHT22;11557;50.884;4.322;2022-07-19T09:55:28;41.40;65.00
22781;DHT22;11557;50.884;4.322;2022-07-19T09:57:56;41.10;64.00
22781;DHT22;11557;50.884;4.322;2022-07-19T10:00:23;40.90;63.20
22781;DHT22;11557;50.884;4.322;2022-07-19T10:02:55;41.10;66.90
22781;DHT22;11557;50.884;4.322;2022-07-19T10:05:22;41.30;60.40
22781;DHT22;11557;50.884;4.322;2022-07-19T10:07:48;41.00;62.50
22781;DHT22;11557;50.884;4.322;2022-07-19T10:10:15;41.00;62.20
22781;DHT22;11557;50.884;4.322;2022-07-19T10:12:44;40.60;60.40
22781;DHT22;11557;50.884;4.322;2022-07-19T10:15:12;41.00;66.90
22781;DHT22;11557;50.884;4.322;2022-07-19T10:18:08;41.30;63.30
22781;DHT22;11557;50.884;4.322;2022-07-19T10:20:36;41.30;61.30
22781;DHT22;11557;50.884;4.322;2022-07-19T10:23:04;41.40;62.90
22781;DHT22;11557;50.884;4.322;2022-07-19T10:25:44;41.60;61.10
22781;DHT22;11557;50.884;4.322;2022-07-19T10:28:36;41.20;62.60
22781;DHT22;11557;50.884;4.322;2022-07-19T10:31:13;41.30;66.60
22781;DHT22;11557;50.884;4.322;2022-07-19T10:33:58;41.30;64.60
22781;DHT22;11557;50.884;4.322;2022-07-19T10:44:28;41.00;60.90
22781;DHT22;11557;50.884;4.322;2022-07-19T10:46:54;40.90;61.60
22781;DHT22;11557;50.884;4.322;2022-07-19T10:49:49;40.60;60.60
22781;DHT22;11557;50.884;4.322;2022-07-19T10:52:32;40.60;61.20
22781;DHT22;11557;50.884;4.322;2022-07-19T10:58:12;41.10;62.70
22781;DHT22;11557;50.884;4.322;2022-07-19T11:00:47;41.20;63.00
22781;DHT22;11557;50.884;4.322;2022-07-19T11:05:49;41.30;59.40
22781;DHT22;11557;50.884;4.322;2022-07-19T11:08:15;41.20;64.70
22781;DHT22;11557;50.884;4.322;2022-07-19T11:10:41;41.20;60.50
22781;DHT22;11557;50.884;4.322;2022-07-19T11:13:07;41.20;61.70
22781;DHT22;11557;50.884;4.322;2022-07-19T11:15:33;41.10;59.00
22781;DHT22;11557;50.884;4.322;2022-07-19T11:18:07;41.00;62.30
22781;DHT22;11557;50.884;4.322;2022-07-19T11:20:34;41.20;64.60
22781;DHT22;11557;50.884;4.322;2022-07-19T11:23:03;41.20;62.70
22781;DHT22;11557;50.884;4.322;2022-07-19T11:25:32;40.90;58.10
22781;DHT22;11557;50.884;4.322;2022-07-19T11:27:58;40.60;59.70
22781;DHT22;11557;50.884;4.322;2022-07-19T11:30:26;40.50;61.70
22781;DHT22;11557;50.884;4.322;2022-07-19T11:32:55;40.60;58.60
22781;DHT22;11557;50.884;4.322;2022-07-19T11:35:21;40.60;58.20
22781;DHT22;11557;50.884;4.322;2022-07-19T11:37:47;40.50;60.30
22781;DHT22;11557;50.884;4.322;2022-07-19T11:40:14;40.40;60.70
22781;DHT22;11557;50.884;4.322;2022-07-19T11:42:45;40.60;60.80
22781;DHT22;11557;50.884;4.322;2022-07-19T11:45:19;40.70;60.40
22781;DHT22;11557;50.884;4.322;2022-07-19T11:47:50;40.90;60.30
22781;DHT22;11557;50.884;4.322;2022-07-19T11:50:19;41.00;60.20
22781;DHT22;11557;50.884;4.322;2022-07-19T11:52:45;41.10;59.70
22781;DHT22;11557;50.884;4.322;2022-07-19T11:55:13;41.00;59.80
22781;DHT22;11557;50.884;4.322;2022-07-19T11:57:39;41.00;58.90
22781;DHT22;11557;50.884;4.322;2022-07-19T12:00:07;41.00;58.90
22781;DHT22;11557;50.884;4.322;2022-07-19T12:02:58;40.80;65.30
22781;DHT22;11557;50.884;4.322;2022-07-19T12:05:30;41.00;60.00
22781;DHT22;11557;50.884;4.322;2022-07-19T12:07:59;41.10;60.30
22781;DHT22;11557;50.884;4.322;2022-07-19T12:10:44;41.10;61.70
22781;DHT22;11557;50.884;4.322;2022-07-19T12:13:13;41.30;58.40
22781;DHT22;11557;50.884;4.322;2022-07-19T12:16:09;41.50;62.60
22781;DHT22;11557;50.884;4.322;2022-07-19T12:24:21;41.70;57.10
22781;DHT22;11557;50.884;4.322;2022-07-19T12:27:03;41.60;59.30
22781;DHT22;11557;50.884;4.322;2022-07-19T12:29:43;41.50;58.80
22781;DHT22;11557;50.884;4.322;2022-07-19T12:32:37;41.50;59.80
22781;DHT22;11557;50.884;4.322;2022-07-19T12:35:05;41.40;57.90
22781;DHT22;11557;50.884;4.322;2022-07-19T12:37:33;41.50;58.80
22781;DHT22;11557;50.884;4.322;2022-07-19T12:45:22;40.70;58.10
22781;DHT22;11557;50.884;4.322;2022-07-19T12:47:49;40.70;58.00
22781;DHT22;11557;50.884;4.322;2022-07-19T12:52:45;40.50;58.80
22781;DHT22;11557;50.884;4.322;2022-07-19T12:55:11;40.70;58.40
22781;DHT22;11557;50.884;4.322;2022-07-19T12:57:37;40.80;59.30
22781;DHT22;11557;50.884;4.322;2022-07-19T13:00:05;40.70;59.20
22781;DHT22;11557;50.884;4.322;2022-07-19T13:02:31;40.80;58.50
22781;DHT22;11557;50.884;4.322;2022-07-19T13:04:56;40.80;58.20
22781;DHT22;11557;50.884;4.322;2022-07-19T13:07:22;40.90;59.60
22781;DHT22;11557;50.884;4.322;2022-07-19T13:09:48;41.00;57.60
22781;DHT22;11557;50.884;4.322;2022-07-19T13:12:13;41.10;57.40
22781;DHT22;11557;50.884;4.322;2022-07-19T13:14:40;41.10;56.80
22781;DHT22;11557;50.884;4.322;2022-07-19T13:17:06;40.90;57.30
22781;DHT22;11557;50.884;4.322;2022-07-19T13:19:36;41.00;56.90
22781;DHT22;11557;50.884;4.322;2022-07-19T13:22:02;41.10;59.30
22781;DHT22;11557;50.884;4.322;2022-07-19T13:24:28;41.00;57.90
22781;DHT22;11557;50.884;4.322;2022-07-19T13:26:55;41.10;59.30
22781;DHT22;11557;50.884;4.322;2022-07-19T13:29:21;41.00;58.50
22781;DHT22;11557;50.884;4.322;2022-07-19T13:31:48;40.90;56.60
22781;DHT22;11557;50.884;4.322;2022-07-19T13:34:17;40.90;57.00
22781;DHT22;11557;50.884;4.322;2022-07-19T13:36:43;41.10;58.80
22781;DHT22;11557;50.884;4.322;2022-07-19T13:39:10;40.90;56.50
22781;DHT22;11557;50.884;4.322;2022-07-19T13:41:38;41.10;57.20
22781;DHT22;11557;50.884;4.322;2022-07-19T13:44:04;41.10;56.80
22781;DHT22;11557;50.884;4.322;2022-07-19T13:46:31;41.00;56.00
22781;DHT22;11557;50.884;4.322;2022-07-19T13:48:56;40.90;55.20
22781;DHT22;11557;50.884;4.322;2022-07-19T13:51:22;40.90;56.30
22781;DHT22;11557;50.884;4.322;2022-07-19T13:56:17;41.10;56.20
22781;DHT22;11557;50.884;4.322;2022-07-19T13:58:43;41.30;55.60
22781;DHT22;11557;50.884;4.322;2022-07-19T14:01:11;41.30;56.20
22781;DHT22;11557;50.884;4.322;2022-07-19T14:03:37;41.30;55.10
22781;DHT22;11557;50.884;4.322;2022-07-19T14:06:03;41.30;55.70
22781;DHT22;11557;50.884;4.322;2022-07-19T14:08:29;41.30;55.70
22781;DHT22;11557;50.884;4.322;2022-07-19T14:10:54;41.90;57.70
22781;DHT22;11557;50.884;4.322;2022-07-19T14:13:20;41.50;56.70
22781;DHT22;11557;50.884;4.322;2022-07-19T14:15:46;41.50;56.40
22781;DHT22;11557;50.884;4.322;2022-07-19T14:18:12;41.50;57.00
22781;DHT22;11557;50.884;4.322;2022-07-19T14:20:42;41.30;55.00
22781;DHT22;11557;50.884;4.322;2022-07-19T14:23:12;41.20;55.50
22781;DHT22;11557;50.884;4.322;2022-07-19T14:25:38;41.20;54.20
22781;DHT22;11557;50.884;4.322;2022-07-19T14:28:06;41.20;54.50
22781;DHT22;11557;50.884;4.322;2022-07-19T14:30:32;41.30;54.30
22781;DHT22;11557;50.884;4.322;2022-07-19T14:32:57;41.10;52.70
22781;DHT22;11557;50.884;4.322;2022-07-19T14:35:23;40.90;52.20
22781;DHT22;11557;50.884;4.322;2022-07-19T14:37:49;40.70;54.60
22781;DHT22;11557;50.884;4.322;2022-07-19T14:40:15;40.70;54.10
22781;DHT22;11557;50.884;4.322;2022-07-19T14:42:41;40.90;55.60
22781;DHT22;11557;50.884;4.322;2022-07-19T14:45:08;40.90;53.90
22781;DHT22;11557;50.884;4.322;2022-07-19T14:47:35;41.10;54.40
22781;DHT22;11557;50.884;4.322;2022-07-19T14:50:03;41.10;52.40
22781;DHT22;11557;50.884;4.322;2022-07-19T14:52:29;41.10;53.00
22781;DHT22;11557;50.884;4.322;2022-07-19T14:54:55;41.00;52.20
22781;DHT22;11557;50.884;4.322;2022-07-19T14:57:24;41.00;52.90
22781;DHT22;11557;50.884;4.322;2022-07-19T14:59:50;40.90;51.30
22781;DHT22;11557;50.884;4.322;2022-07-19T15:02:16;40.90;53.80
22781;DHT22;11557;50.884;4.322;2022-07-19T15:04:43;41.00;53.60
22781;DHT22;11557;50.884;4.322;2022-07-19T15:07:10;41.10;54.70
22781;DHT22;11557;50.884;4.322;2022-07-19T15:09:36;41.00;55.20
22781;DHT22;11557;50.884;4.322;2022-07-19T15:12:03;41.00;53.40
22781;DHT22;11557;50.884;4.322;2022-07-19T15:14:30;40.90;53.30
22781;DHT22;11557;50.884;4.322;2022-07-19T15:16:57;40.80;52.10
22781;DHT22;11557;50.884;4.322;2022-07-19T15:19:23;40.70;51.40
22781;DHT22;11557;50.884;4.322;2022-07-19T15:21:50;40.80;53.40
22781;DHT22;11557;50.884;4.322;2022-07-19T15:24:16;40.60;51.30
22781;DHT22;11557;50.884;4.322;2022-07-19T15:26:42;40.70;51.10
22781;DHT22;11557;50.884;4.322;2022-07-19T15:29:07;40.70;52.00
22781;DHT22;11557;50.884;4.322;2022-07-19T15:31:33;40.90;51.60
22781;DHT22;11557;50.884;4.322;2022-07-19T15:33:59;40.90;52.80
22781;DHT22;11557;50.884;4.322;2022-07-19T15:36:25;41.00;53.30
22781;DHT22;11557;50.884;4.322;2022-07-19T15:38:51;41.10;53.80
22781;DHT22;11557;50.884;4.322;2022-07-19T15:41:17;41.00;53.70
22781;DHT22;11557;50.884;4.322;2022-07-19T15:43:43;41.00;53.40
22781;DHT22;11557;50.884;4.322;2022-07-19T15:46:10;40.90;54.60
22781;DHT22;11557;50.884;4.322;2022-07-19T15:48:37;40.90;52.80
22781;DHT22;11557;50.884;4.322;2022-07-19T15:51:03;40.80;54.50
22781;DHT22;11557;50.884;4.322;2022-07-19T15:53:30;40.70;52.20
22781;DHT22;11557;50.884;4.322;2022-07-19T15:55:56;40.60;51.70
22781;DHT22;11557;50.884;4.322;2022-07-19T15:58:22;40.60;51.70
22781;DHT22;11557;50.884;4.322;2022-07-19T16:00:48;40.60;53.00
22781;DHT22;11557;50.884;4.322;2022-07-19T16:03:14;40.60;53.40
22781;DHT22;11557;50.884;4.322;2022-07-19T16:05:40;40.50;53.30
22781;DHT22;11557;50.884;4.322;2022-07-19T16:08:06;40.30;52.90
22781;DHT22;11557;50.884;4.322;2022-07-19T16:10:32;40.40;54.80